Time;durP1;ratioP1;P1;durP2;ratioP2;P2;SDS_P1;SDS_P2;PMS_P1;PMS_P2;Temp;Humidity;BMP_temperature;BMP_pressure;BME280_temperature;BME280_humidity;BME280_pressure;Samples;Min_cycle;Max_cycle;Signal;HPM_P1;HPM_P2
2021/08/09 00:00:38;;;;;;;6.43;3.67;;;12.70;99.90;;;;;;5054742;28;20025;-74
2021/08/09 00:03:04;;;;;;;8.10;4.30;;;12.70;99.90;;;;;;5054891;28;20031;-73
2021/08/09 00:05:29;;;;;;;7.13;4.40;;;12.60;99.90;;;;;;5054154;28;20040;-73
2021/08/09 00:07:55;;;;;;;11.70;3.90;;;12.70;99.90;;;;;;5054223;28;20029;-73
2021/08/09 00:10:21;;;;;;;8.70;3.70;;;12.60;99.90;;;;;;5054488;28;20064;-73
2021/08/09 00:12:47;;;;;;;5.10;4.00;;;12.60;99.90;;;;;;5054404;28;20048;-74
2021/08/09 00:15:12;;;;;;;5.55;3.65;;;12.60;99.90;;;;;;5054198;28;20061;-73
2021/08/09 00:17:38;;;;;;;5.50;4.32;;;12.60;99.90;;;;;;5055669;28;20052;-72
2021/08/09 00:20:07;;;;;;;4.13;3.30;;;12.50;99.90;;;;;;5053648;28;20036;-75
2021/08/09 00:22:32;;;;;;;5.05;3.30;;;12.60;99.90;;;;;;5054312;28;20037;-75
2021/08/09 00:24:58;;;;;;;9.40;3.85;;;12.60;99.90;;;;;;5053603;28;20021;-75
2021/08/09 00:27:23;;;;;;;10.07;4.05;;;12.60;99.90;;;;;;5054350;28;20025;-75
2021/08/09 00:29:49;;;;;;;5.75;3.65;;;12.50;99.90;;;;;;5053945;28;20037;-75
2021/08/09 00:32:15;;;;;;;4.60;3.33;;;12.40;99.90;;;;;;5054905;28;20101;-74
2021/08/09 00:34:40;;;;;;;6.47;3.58;;;12.40;99.90;;;;;;5054163;28;20025;-74
2021/08/09 00:37:06;;;;;;;5.45;3.80;;;12.30;99.90;;;;;;5054855;28;20050;-74
2021/08/09 00:39:31;;;;;;;6.03;3.75;;;12.40;99.90;;;;;;5054139;28;20050;-74
2021/08/09 00:41:57;;;;;;;4.28;3.50;;;12.30;99.90;;;;;;5053629;28;20479;-74
2021/08/09 00:44:23;;;;;;;6.25;3.75;;;12.30;99.90;;;;;;5053474;28;20463;-74
2021/08/09 00:46:48;;;;;;;11.85;3.60;;;12.30;99.90;;;;;;5054011;28;20025;-74
2021/08/09 00:49:14;;;;;;;8.70;3.95;;;12.30;99.90;;;;;;5054091;28;20043;-73
2021/08/09 00:51:40;;;;;;;5.68;4.22;;;12.20;99.90;;;;;;5054079;28;20387;-74
2021/08/09 00:54:05;;;;;;;7.35;4.15;;;12.20;99.90;;;;;;5054027;28;20092;-75
2021/08/09 00:56:31;;;;;;;8.68;4.20;;;12.30;99.90;;;;;;5052525;28;20021;-75
2021/08/09 00:58:59;;;;;;;11.23;3.75;;;12.40;99.90;;;;;;5053518;28;20032;-75
2021/08/09 01:01:25;;;;;;;7.03;3.90;;;12.40;99.90;;;;;;5053522;28;20035;-74
2021/08/09 01:03:50;;;;;;;6.07;3.45;;;12.40;99.90;;;;;;5053721;28;20025;-74
2021/08/09 01:06:16;;;;;;;4.50;3.53;;;12.50;99.90;;;;;;5053103;28;20048;-74
2021/08/09 01:08:56;;;;;;;6.53;3.80;;;12.30;99.90;;;;;;5053569;28;20110;-74
2021/08/09 01:11:39;;;;;;;6.28;3.40;;;12.30;99.90;;;;;;5053166;28;20021;-74
2021/08/09 01:14:21;;;;;;;7.38;3.90;;;12.30;99.90;;;;;;5053581;28;20028;-75
2021/08/09 01:16:48;;;;;;;6.10;3.65;;;12.20;99.90;;;;;;5053454;28;20013;-75
2021/08/09 01:19:34;;;;;;;5.72;3.60;;;12.20;99.90;;;;;;5052759;28;20039;-75
2021/08/09 01:22:25;;;;;;;7.90;4.10;;;12.10;99.90;;;;;;5053348;28;20064;-74
2021/08/09 01:25:22;;;;;;;9.25;3.65;;;12.10;99.90;;;;;;5052880;28;20040;-75
2021/08/09 01:27:50;;;;;;;9.48;4.07;;;12.10;99.90;;;;;;5051545;28;20032;-75
2021/08/09 01:30:18;;;;;;;8.05;3.95;;;12.00;99.90;;;;;;5051691;28;20104;-74
2021/08/09 01:32:45;;;;;;;8.32;4.18;;;12.00;99.90;;;;;;5053116;28;20683;-74
2021/08/09 01:35:13;;;;;;;7.20;4.03;;;12.00;99.90;;;;;;5050966;28;20487;-74
2021/08/09 01:37:43;;;;;;;8.27;4.50;;;12.00;99.90;;;;;;5053266;28;20056;-75
2021/08/09 01:40:10;;;;;;;7.57;4.20;;;11.90;99.90;;;;;;5052767;28;20425;-74
2021/08/09 01:42:42;;;;;;;10.10;4.78;;;11.90;99.90;;;;;;5051747;28;20394;-75
2021/08/09 01:45:08;;;;;;;8.98;4.38;;;11.90;99.90;;;;;;5052274;28;20071;-75
2021/08/09 01:47:35;;;;;;;7.53;4.15;;;11.90;99.90;;;;;;5052976;28;20025;-74
2021/08/09 01:50:03;;;;;;;11.07;4.57;;;11.90;99.90;;;;;;5052857;28;20044;-74
2021/08/09 01:52:30;;;;;;;9.10;4.43;;;11.80;99.90;;;;;;5052374;28;20029;-74
2021/08/09 01:54:56;;;;;;;5.53;3.88;;;11.80;99.90;;;;;;5052130;28;20124;-74
2021/08/09 01:57:25;;;;;;;16.25;4.60;;;11.70;99.90;;;;;;5052573;28;20029;-75
2021/08/09 01:59:51;;;;;;;6.10;4.50;;;11.70;99.90;;;;;;5052643;28;20025;-74
2021/08/09 02:02:29;;;;;;;9.63;4.38;;;11.80;99.90;;;;;;5052710;28;20486;-74
2021/08/09 02:04:55;;;;;;;8.00;4.05;;;11.80;99.90;;;;;;5052243;28;20025;-74
2021/08/09 02:07:21;;;;;;;5.85;4.47;;;11.70;99.90;;;;;;5051883;28;20086;-74
2021/08/09 02:09:47;;;;;;;8.45;4.65;;;11.70;99.90;;;;;;5051956;28;20487;-74
2021/08/09 02:12:13;;;;;;;5.43;4.28;;;11.70;99.90;;;;;;5052409;28;20105;-74
2021/08/09 02:14:51;;;;;;;10.02;5.10;;;11.70;99.90;;;;;;5051185;28;20652;-74
2021/08/09 02:17:20;;;;;;;14.68;4.45;;;11.80;99.90;;;;;;5052483;28;20435;-74
2021/08/09 02:19:57;;;;;;;11.68;4.80;;;11.60;99.90;;;;;;5052379;28;20032;-73
2021/08/09 02:22:30;;;;;;;11.93;5.13;;;11.70;99.90;;;;;;5067987;28;20044;-74
2021/08/09 02:25:04;;;;;;;;;;;11.60;99.90;;;;;;5054968;28;20025;-75
2021/08/09 02:27:40;;;;;;;10.93;5.13;;;11.60;99.90;;;;;;5051953;28;19934;-74
2021/08/09 02:30:07;;;;;;;5.72;4.25;;;11.50;99.90;;;;;;5052366;28;20132;-74
2021/08/09 02:32:36;;;;;;;7.03;4.50;;;11.60;99.90;;;;;;5051935;28;20112;-74
2021/08/09 02:35:02;;;;;;;7.82;4.57;;;11.50;99.90;;;;;;5051530;28;20029;-74
2021/08/09 02:37:28;;;;;;;9.73;4.97;;;11.50;99.90;;;;;;5051921;28;20025;-74
2021/08/09 02:39:56;;;;;;;8.70;5.93;;;11.50;99.90;;;;;;5051809;28;20036;-74
2021/08/09 02:42:22;;;;;;;11.30;5.40;;;11.50;99.90;;;;;;5051993;28;20094;-74
2021/08/09 02:44:48;;;;;;;15.23;6.50;;;11.40;99.90;;;;;;5051435;28;20033;-74
2021/08/09 02:47:15;;;;;;;5.70;5.13;;;11.40;99.90;;;;;;5051826;28;20035;-74
2021/08/09 02:49:48;;;;;;;9.52;4.95;;;11.40;99.90;;;;;;5051508;28;20443;-74
2021/08/09 02:52:19;;;;;;;7.97;4.55;;;11.40;99.90;;;;;;5051801;28;20074;-73
2021/08/09 02:54:48;;;;;;;7.18;4.63;;;11.40;99.90;;;;;;5051054;28;20021;-75
2021/08/09 02:57:16;;;;;;;10.35;5.15;;;11.50;99.90;;;;;;5051503;28;20113;-74
2021/08/09 02:59:42;;;;;;;7.80;4.80;;;11.40;99.90;;;;;;5050029;28;20032;-74
2021/08/09 03:02:09;;;;;;;7.78;4.47;;;11.40;99.90;;;;;;5051629;28;20399;-74
2021/08/09 03:04:36;;;;;;;9.40;5.30;;;11.40;99.90;;;;;;5050937;28;20390;-74
2021/08/09 03:07:05;;;;;;;10.05;5.13;;;11.40;99.90;;;;;;5051649;28;20490;-74
2021/08/09 03:09:34;;;;;;;11.50;4.72;;;11.40;99.90;;;;;;5051374;28;20074;-74
2021/08/09 03:12:00;;;;;;;6.70;4.00;;;11.40;99.90;;;;;;5050996;28;20029;-73
2021/08/09 03:14:27;;;;;;;12.60;4.97;;;11.40;99.90;;;;;;5050911;28;20044;-74
2021/08/09 03:16:55;;;;;;;5.25;4.00;;;11.40;99.90;;;;;;5051469;28;20021;-75
2021/08/09 03:19:21;;;;;;;6.13;4.00;;;11.40;99.90;;;;;;5051115;28;20025;-75
2021/08/09 03:21:54;;;;;;;4.38;4.00;;;11.40;99.90;;;;;;5051093;28;20036;-73
2021/08/09 03:24:21;;;;;;;5.30;3.92;;;11.30;99.90;;;;;;5050699;28;20421;-73
2021/08/09 03:26:47;;;;;;;6.93;4.20;;;11.40;99.90;;;;;;5050869;28;20031;-74
2021/08/09 03:29:13;;;;;;;7.88;4.57;;;11.50;99.90;;;;;;5051093;28;20414;-74
2021/08/09 03:31:39;;;;;;;8.82;4.72;;;11.50;99.90;;;;;;5051154;28;20082;-73
2021/08/09 03:34:04;;;;;;;5.00;4.35;;;11.50;99.90;;;;;;5049965;28;20471;-73
2021/08/09 03:36:30;;;;;;;6.90;4.70;;;11.40;99.90;;;;;;5050281;28;20021;-73
2021/08/09 03:38:56;;;;;;;5.40;4.38;;;11.40;99.90;;;;;;5051051;28;20033;-73
2021/08/09 03:41:21;;;;;;;5.30;4.15;;;11.40;99.90;;;;;;5050703;28;20029;-74
2021/08/09 03:43:47;;;;;;;8.88;4.70;;;11.50;99.90;;;;;;5051108;28;20032;-73
2021/08/09 03:46:14;;;;;;;5.82;5.03;;;11.40;99.90;;;;;;5050355;28;20017;-74
2021/08/09 03:48:40;;;;;;;6.53;4.63;;;11.40;99.90;;;;;;5047105;28;20475;-74
2021/08/09 03:51:06;;;;;;;9.02;5.07;;;11.30;99.90;;;;;;5062007;28;20066;-75
2021/08/09 03:53:31;;;;;;;7.80;4.80;;;11.40;99.90;;;;;;5070615;28;20043;-75
2021/08/09 03:55:57;;;;;;;7.80;5.10;;;11.40;99.90;;;;;;5069611;28;20020;-75
2021/08/09 03:58:23;;;;;;;8.60;4.75;;;11.40;99.90;;;;;;5070509;28;20028;-75
2021/08/09 04:00:48;;;;;;;5.20;4.32;;;11.50;99.90;;;;;;5070402;28;20032;-74
2021/08/09 04:03:14;;;;;;;9.05;5.50;;;11.50;99.90;;;;;;5070844;28;20028;-75
2021/08/09 04:05:39;;;;;;;5.00;4.38;;;11.40;99.90;;;;;;5070149;28;20532;-74
2021/08/09 04:08:05;;;;;;;6.50;4.10;;;11.40;99.90;;;;;;5070525;28;20031;-74
2021/08/09 04:10:31;;;;;;;7.47;4.60;;;11.40;99.90;;;;;;5070308;28;20185;-75
2021/08/09 04:12:56;;;;;;;10.52;5.13;;;11.40;99.90;;;;;;5069597;28;20028;-74
2021/08/09 04:15:22;;;;;;;6.20;4.97;;;11.40;99.90;;;;;;5049681;28;20048;-75
2021/08/09 04:17:48;;;;;;;7.38;4.90;;;11.40;99.90;;;;;;5050605;28;20025;-75
2021/08/09 04:20:14;;;;;;;7.95;5.53;;;11.30;99.90;;;;;;5050340;28;20067;-75
2021/08/09 04:22:39;;;;;;;7.68;5.10;;;11.40;99.90;;;;;;5050427;28;20064;-74
2021/08/09 04:25:06;;;;;;;8.02;4.80;;;11.30;99.90;;;;;;5049923;28;20024;-75
2021/08/09 04:27:33;;;;;;;5.72;4.70;;;11.30;99.90;;;;;;5050443;28;20021;-74
2021/08/09 04:29:58;;;;;;;5.90;4.72;;;11.30;99.90;;;;;;5051251;28;20029;-74
2021/08/09 04:32:24;;;;;;;8.93;4.85;;;11.40;99.90;;;;;;5054257;28;20083;-73
2021/08/09 04:34:50;;;;;;;8.30;4.07;;;11.40;99.90;;;;;;5053520;28;20066;-75
2021/08/09 04:37:17;;;;;;;7.78;4.47;;;11.30;99.90;;;;;;5054295;28;20096;-73
2021/08/09 04:39:42;;;;;;;7.82;4.20;;;11.40;99.90;;;;;;5053136;28;20027;-74
2021/08/09 04:42:08;;;;;;;10.30;4.57;;;11.40;99.90;;;;;;5054066;28;20390;-74
2021/08/09 04:44:34;;;;;;;7.43;5.10;;;11.50;99.90;;;;;;5070128;28;20040;-75
2021/08/09 04:46:59;;;;;;;5.88;4.50;;;11.60;99.90;;;;;;5077201;28;20108;-74
2021/08/09 04:49:25;;;;;;;8.93;4.55;;;11.60;99.90;;;;;;5085150;28;20012;-75
2021/08/09 04:51:52;;;;;;;11.77;4.90;;;11.50;99.90;;;;;;5073928;28;20619;-75
2021/08/09 04:54:17;;;;;;;10.43;5.35;;;11.50;99.90;;;;;;5072660;28;20029;-73
2021/08/09 04:56:43;;;;;;;5.35;4.47;;;11.50;99.90;;;;;;5073745;28;20422;-74
2021/08/09 04:59:09;;;;;;;7.57;4.63;;;11.60;99.90;;;;;;5067747;28;20395;-73
2021/08/09 05:01:34;;;;;;;8.23;4.82;;;11.60;99.90;;;;;;5053522;28;20040;-76
2021/08/09 05:04:00;;;;;;;8.25;5.53;;;11.60;99.90;;;;;;5052904;28;20041;-72
2021/08/09 05:06:25;;;;;;;6.55;5.30;;;11.70;99.90;;;;;;5052097;28;20021;-72
2021/08/09 05:08:51;;;;;;;10.98;5.45;;;11.70;99.90;;;;;;5053314;28;20028;-70
2021/08/09 05:11:17;;;;;;;8.13;5.07;;;11.70;99.90;;;;;;5053832;28;20033;-71
2021/08/09 05:13:42;;;;;;;7.10;6.10;;;11.70;99.90;;;;;;5053402;28;20375;-71
2021/08/09 05:16:08;;;;;;;9.18;5.55;;;11.70;99.90;;;;;;5051417;28;20021;-71
2021/08/09 05:18:33;;;;;;;7.25;5.10;;;11.70;99.90;;;;;;5053160;28;20590;-71
2021/08/09 05:20:59;;;;;;;9.88;5.30;;;11.70;99.90;;;;;;5053292;28;20017;-71
2021/08/09 05:23:25;;;;;;;6.15;4.90;;;11.70;99.90;;;;;;5053262;28;20068;-72
2021/08/09 05:25:51;;;;;;;7.68;5.28;;;11.80;99.90;;;;;;5052660;28;20112;-71
2021/08/09 05:28:16;;;;;;;6.60;4.85;;;11.80;99.90;;;;;;5053174;28;20060;-71
2021/08/09 05:30:43;;;;;;;7.97;4.90;;;11.80;99.90;;;;;;5052949;28;20044;-73
2021/08/09 05:33:09;;;;;;;10.63;4.90;;;11.90;99.90;;;;;;5059412;28;20098;-72
2021/08/09 05:35:37;;;;;;;7.03;4.63;;;11.80;99.90;;;;;;5054996;28;20025;-71
2021/08/09 05:38:03;;;;;;;12.73;5.20;;;11.80;99.90;;;;;;5053197;28;20029;-70
2021/08/09 05:40:29;;;;;;;7.95;4.63;;;11.80;99.90;;;;;;5052740;28;20021;-71
2021/08/09 05:42:55;;;;;;;6.80;4.10;;;11.80;99.90;;;;;;5056761;28;20025;-70
2021/08/09 05:45:20;;;;;;;8.23;4.13;;;11.80;99.90;;;;;;5069830;28;20090;-71
2021/08/09 05:47:46;;;;;;;8.88;3.30;;;11.90;99.90;;;;;;5052995;28;20036;-71
2021/08/09 05:50:12;;;;;;;5.38;3.70;;;12.00;99.90;;;;;;5052636;28;20021;-71
2021/08/09 05:52:38;;;;;;;5.80;3.45;;;12.20;99.90;;;;;;5052367;28;20032;-70
2021/08/09 05:55:06;;;;;;;4.65;3.20;;;12.30;99.90;;;;;;5051616;28;20039;-71
2021/08/09 05:57:32;;;;;;;4.80;3.40;;;12.30;99.90;;;;;;5052901;28;20052;-71
2021/08/09 05:59:58;;;;;;;4.00;2.95;;;12.30;99.90;;;;;;5053227;28;20494;-71
2021/08/09 06:02:23;;;;;;;4.13;2.92;;;12.40;99.90;;;;;;5066665;28;20032;-72
2021/08/09 06:04:49;;;;;;;9.02;3.13;;;12.40;99.90;;;;;;5071840;28;20028;-71
2021/08/09 06:07:17;;;;;;;5.95;2.97;;;12.40;99.90;;;;;;5071490;28;20749;-71
2021/08/09 06:09:44;;;;;;;4.03;3.00;;;12.50;99.90;;;;;;5071047;28;20017;-72
2021/08/09 06:12:10;;;;;;;5.57;3.50;;;12.60;99.90;;;;;;5072308;28;20463;-73
2021/08/09 06:14:36;;;;;;;6.00;2.53;;;12.60;99.90;;;;;;5071866;28;20077;-73
2021/08/09 06:17:04;;;;;;;4.85;2.63;;;12.60;99.90;;;;;;5056362;28;20437;-73
2021/08/09 06:19:29;;;;;;;4.05;2.65;;;12.70;99.90;;;;;;5053086;28;20028;-72
2021/08/09 06:21:55;;;;;;;5.90;2.83;;;12.80;99.90;;;;;;5052429;28;20033;-70
2021/08/09 06:24:22;;;;;;;7.18;2.40;;;12.80;99.90;;;;;;5053307;28;20471;-72
2021/08/09 06:26:48;;;;;;;3.63;2.70;;;12.80;99.90;;;;;;5052678;28;20025;-71
2021/08/09 06:29:14;;;;;;;4.50;2.40;;;12.80;99.90;;;;;;5064861;28;20112;-73
2021/08/09 06:31:40;;;;;;;6.20;2.92;;;12.90;99.90;;;;;;5072309;28;20025;-71
2021/08/09 06:34:05;;;;;;;5.78;2.28;;;13.00;99.90;;;;;;5072526;28;20035;-70
2021/08/09 06:36:31;;;;;;;4.25;2.78;;;13.10;99.90;;;;;;5071213;28;20099;-70
2021/08/09 06:38:57;;;;;;;2.50;2.00;;;13.20;99.90;;;;;;5071423;28;20101;-71
2021/08/09 06:41:31;;;;;;;4.82;2.13;;;13.20;99.90;;;;;;5053419;28;20070;-73
2021/08/09 06:43:56;;;;;;;3.67;2.13;;;13.20;99.90;;;;;;5056890;28;20104;-71
2021/08/09 06:46:22;;;;;;;6.68;2.40;;;13.50;99.90;;;;;;5072217;28;20615;-71
2021/08/09 06:48:47;;;;;;;3.97;2.15;;;13.60;99.90;;;;;;5076458;28;20084;-71
2021/08/09 06:51:13;;;;;;;4.32;2.20;;;13.70;99.90;;;;;;5074768;28;20112;-72
2021/08/09 06:53:39;;;;;;;5.70;2.50;;;13.90;99.90;;;;;;5072239;28;20052;-73
2021/08/09 06:56:05;;;;;;;5.93;2.05;;;14.20;99.90;;;;;;5071347;28;20024;-72
2021/08/09 06:58:30;;;;;;;6.90;2.00;;;14.30;99.90;;;;;;5071705;28;20070;-71
2021/08/09 07:00:56;;;;;;;2.65;1.83;;;14.30;99.90;;;;;;5071508;28;20025;-71
2021/08/09 07:03:21;;;;;;;1.77;1.50;;;14.40;99.90;;;;;;5071752;28;20024;-71
2021/08/09 07:05:47;;;;;;;4.95;1.83;;;14.50;99.90;;;;;;5071061;28;20059;-70
2021/08/09 07:08:14;;;;;;;2.45;1.88;;;14.60;99.90;;;;;;5071528;28;20048;-71
2021/08/09 07:10:43;;;;;;;2.72;1.70;;;14.70;99.90;;;;;;5058263;28;20027;-72
2021/08/09 07:13:08;;;;;;;4.93;1.60;;;14.80;99.90;;;;;;5061863;28;20025;-70
2021/08/09 07:15:34;;;;;;;3.13;1.80;;;15.00;99.90;;;;;;5057500;28;20020;-70
2021/08/09 07:18:00;;;;;;;7.07;1.95;;;15.20;99.90;;;;;;5051312;28;20033;-70
2021/08/09 07:20:26;;;;;;;4.93;1.80;;;15.20;99.90;;;;;;5051230;28;20082;-73
2021/08/09 07:22:51;;;;;;;7.97;1.63;;;15.30;99.90;;;;;;5068842;28;20058;-72
2021/08/09 07:25:18;;;;;;;3.55;1.40;;;15.30;99.90;;;;;;5075388;28;20056;-71
2021/08/09 07:27:44;;;;;;;2.20;1.50;;;15.50;99.90;;;;;;5075376;28;20032;-71
2021/08/09 07:30:13;;;;;;;2.03;1.30;;;15.60;99.90;;;;;;5069852;28;20435;-71
2021/08/09 07:32:40;;;;;;;4.00;1.80;;;16.00;99.90;;;;;;5071048;28;20064;-71
2021/08/09 07:35:06;;;;;;;3.33;1.33;;;16.10;99.90;;;;;;5071201;28;20021;-71
2021/08/09 07:37:32;;;;;;;2.78;1.50;;;16.50;99.90;;;;;;5070993;28;20036;-72
2021/08/09 07:39:57;;;;;;;3.33;1.30;;;16.60;99.90;;;;;;5071096;28;20017;-71
2021/08/09 07:42:26;;;;;;;4.65;1.75;;;16.70;99.90;;;;;;5071201;28;20039;-71
2021/08/09 07:44:52;;;;;;;3.67;1.30;;;16.90;99.90;;;;;;5070389;28;20081;-71
2021/08/09 07:47:18;;;;;;;3.85;1.30;;;16.90;99.90;;;;;;5069538;28;20020;-71
2021/08/09 07:49:44;;;;;;;1.75;1.38;;;16.90;99.90;;;;;;5071033;28;20035;-71
2021/08/09 07:52:10;;;;;;;5.10;1.48;;;17.20;99.90;;;;;;5070814;28;20021;-72
2021/08/09 07:54:36;;;;;;;3.83;1.60;;;17.80;99.90;;;;;;5070359;28;20021;-72
2021/08/09 07:57:04;;;;;;;4.30;1.38;;;18.10;99.90;;;;;;5071000;28;20020;-71
2021/08/09 07:59:30;;;;;;;3.17;1.13;;;18.30;99.90;;;;;;5070679;28;20104;-72
2021/08/09 08:01:57;;;;;;;2.63;1.38;;;18.60;99.90;;;;;;5070858;28;20025;-71
2021/08/09 08:04:23;;;;;;;3.85;1.50;;;18.70;99.90;;;;;;5070674;28;20120;-72
2021/08/09 08:06:48;;;;;;;3.08;1.45;;;18.80;99.90;;;;;;5074553;28;20096;-73
2021/08/09 08:09:14;;;;;;;1.42;1.23;;;18.90;99.90;;;;;;5089051;22;20031;-75
2021/08/09 08:11:39;;;;;;;3.90;1.10;;;18.90;99.90;;;;;;5101215;28;20546;-74
2021/08/09 08:14:05;;;;;;;4.45;1.40;;;18.90;99.90;;;;;;5111124;28;20035;-75
2021/08/09 08:16:31;;;;;;;1.77;1.10;;;19.00;99.90;;;;;;5114540;28;20047;-74
2021/08/09 08:18:56;;;;;;;2.25;1.38;;;19.30;99.90;;;;;;5114935;28;20468;-75
2021/08/09 08:21:22;;;;;;;2.45;1.33;;;18.80;99.90;;;;;;5112703;28;20389;-72
2021/08/09 08:23:48;;;;;;;2.25;1.10;;;19.10;99.90;;;;;;5094542;28;20053;-73
2021/08/09 08:26:13;;;;;;;3.13;1.05;;;19.00;99.90;;;;;;5093450;28;20020;-74
2021/08/09 08:28:39;;;;;;;3.97;1.35;;;18.90;99.90;;;;;;5093327;28;20511;-73
2021/08/09 08:31:05;;;;;;;3.70;1.50;;;19.20;99.90;;;;;;5094101;28;20477;-74
2021/08/09 08:33:31;;;;;;;1.67;1.02;;;20.00;99.90;;;;;;5094030;28;20024;-74
2021/08/09 08:35:57;;;;;;;1.48;1.23;;;20.30;99.90;;;;;;5093537;28;20020;-74
2021/08/09 08:38:22;;;;;;;1.42;1.00;;;21.20;99.90;;;;;;5093768;28;20012;-74
2021/08/09 08:40:50;;;;;;;3.90;0.90;;;21.80;99.90;;;;;;5093278;28;20035;-75
2021/08/09 08:43:23;;;;;;;1.98;1.00;;;21.70;99.90;;;;;;5094050;28;20042;-75
2021/08/09 08:45:59;;;;;;;0.88;0.73;;;21.70;99.90;;;;;;5093525;28;20036;-74
2021/08/09 08:48:27;;;;;;;1.55;0.77;;;22.70;99.90;;;;;;5094117;28;20024;-74
2021/08/09 08:50:54;;;;;;;1.25;0.65;;;22.90;99.90;;;;;;5094004;28;20039;-74
2021/08/09 08:53:20;;;;;;;2.65;1.00;;;22.60;99.90;;;;;;5093977;28;20390;-75
2021/08/09 08:55:46;;;;;;;1.70;0.88;;;22.80;99.90;;;;;;5092799;28;20020;-72
2021/08/09 08:58:12;;;;;;;2.00;0.68;;;24.00;99.90;;;;;;5092595;28;20073;-72
2021/08/09 09:00:38;;;;;;;2.05;0.93;;;24.10;99.90;;;;;;5093675;28;20044;-72
2021/08/09 09:03:26;;;;;;;1.50;0.75;;;24.20;99.90;;;;;;5093765;28;20106;-72
2021/08/09 09:06:03;;;;;;;1.13;0.70;;;24.00;99.90;;;;;;5093134;28;20020;-73
2021/08/09 09:08:50;;;;;;;1.67;1.00;;;22.70;99.90;;;;;;5092423;28;20054;-74
2021/08/09 09:11:39;;;;;;;3.17;1.20;;;22.80;99.90;;;;;;5091880;28;20127;-73
2021/08/09 09:14:05;;;;;;;3.00;0.60;;;24.70;99.90;;;;;;5093562;28;20031;-74
2021/08/09 09:16:48;;;;;;;3.03;0.85;;;25.10;98.30;;;;;;5092547;28;20393;-73
2021/08/09 09:19:41;;;;;;;3.13;0.93;;;26.30;96.20;;;;;;5093264;28;20383;-71
2021/08/09 09:22:22;;;;;;;1.58;0.85;;;26.90;96.00;;;;;;5093232;28;20020;-75
2021/08/09 09:24:52;;;;;;;3.50;0.80;;;26.60;94.80;;;;;;5092516;28;20027;-73
2021/08/09 09:27:30;;;;;;;4.57;1.02;;;24.80;95.90;;;;;;5093446;28;20034;-73
2021/08/09 09:29:57;;;;;;;1.27;0.80;;;24.40;97.80;;;;;;5091425;28;20040;-74
2021/08/09 09:32:23;;;;;;;2.83;0.82;;;23.70;98.30;;;;;;5093014;28;20021;-74
2021/08/09 09:34:51;;;;;;;3.58;1.10;;;23.20;99.70;;;;;;5092151;28;20390;-73
2021/08/09 09:37:29;;;;;;;5.05;0.68;;;23.40;97.30;;;;;;5092938;28;20049;-73
2021/08/09 09:40:05;;;;;;;1.52;0.70;;;23.60;98.40;;;;;;5092734;28;20035;-73
2021/08/09 09:42:36;;;;;;;3.53;0.88;;;24.30;97.50;;;;;;5093010;28;20105;-73
2021/08/09 09:45:23;;;;;;;1.58;0.80;;;24.40;96.70;;;;;;5092375;28;20024;-73
2021/08/09 09:48:15;;;;;;;0.98;0.55;;;25.30;96.30;;;;;;5092692;28;20044;-74
2021/08/09 09:50:42;;;;;;;;;;;25.80;94.60;;;;;;5090406;28;20070;-73
2021/08/09 09:53:20;;;;;;;5.25;1.10;;;26.40;93.80;;;;;;5092791;28;19908;-74
2021/08/09 09:55:48;;;;;;;4.38;0.77;;;25.90;92.60;;;;;;5091873;28;20034;-73
2021/08/09 09:58:18;;;;;;;1.70;0.90;;;26.40;92.30;;;;;;5092308;28;20023;-73
2021/08/09 10:00:44;;;;;;;1.05;0.70;;;26.40;92.20;;;;;;5092735;28;20552;-72
2021/08/09 10:03:10;;;;;;;3.38;0.90;;;26.70;91.60;;;;;;5092545;28;20040;-73
2021/08/09 10:05:41;;;;;;;3.15;1.08;;;26.80;91.50;;;;;;5091914;28;20032;-72
2021/08/09 10:08:16;;;;;;;2.77;1.00;;;25.80;91.50;;;;;;5092146;28;20039;-74
2021/08/09 10:10:49;;;;;;;1.75;1.27;;;26.00;92.20;;;;;;5091692;28;20606;-74
2021/08/09 10:13:23;;;;;;;2.22;0.90;;;25.70;93.60;;;;;;5092410;28;20430;-73
2021/08/09 10:15:57;;;;;;;1.77;0.90;;;25.90;90.70;;;;;;5091837;28;20016;-74
2021/08/09 10:18:25;;;;;;;1.35;0.98;;;26.80;91.80;;;;;;5092225;28;20016;-73
2021/08/09 10:20:56;;;;;;;2.55;0.88;;;27.80;88.70;;;;;;5086992;28;20031;-73
2021/08/09 10:23:48;;;;;;;1.13;0.90;;;28.10;85.90;;;;;;5090109;28;20511;-72
2021/08/09 10:26:14;;;;;;;;;;;28.00;83.80;;;;;;5091704;28;20497;-73
2021/08/09 10:28:54;;;;;;;1.75;1.25;;;28.10;89.10;;;;;;5091247;28;19904;-72
2021/08/09 10:31:30;;;;;;;1.23;0.77;;;28.20;85.30;;;;;;5091967;28;20024;-71
2021/08/09 10:33:57;;;;;;;1.20;0.73;;;28.00;88.80;;;;;;5091935;28;20032;-73
2021/08/09 10:36:24;;;;;;;1.60;0.80;;;27.80;86.80;;;;;;5093248;28;20419;-78
2021/08/09 10:39:00;;;;;;;3.45;0.82;;;27.10;87.00;;;;;;5094247;28;20027;-79
2021/08/09 10:41:35;;;;;;;2.38;1.00;;;27.10;90.40;;;;;;5094322;28;20093;-77
2021/08/09 10:44:09;;;;;;;2.83;0.80;;;26.70;89.10;;;;;;5092637;28;20020;-77
2021/08/09 10:46:44;;;;;;;2.75;0.70;;;27.00;91.50;;;;;;5092039;28;20032;-77
2021/08/09 10:49:31;;;;;;;1.92;0.93;;;28.00;87.90;;;;;;5089716;28;20031;-76
2021/08/09 10:51:56;;;;;;;1.55;1.00;;;28.10;83.00;;;;;;5087584;28;20047;-71
2021/08/09 10:54:35;;;;;;;1.25;0.70;;;28.00;84.00;;;;;;5087008;28;20068;-72
2021/08/09 10:57:04;;;;;;;0.82;0.80;;;27.40;85.40;;;;;;5090960;28;20103;-71
2021/08/09 10:59:46;;;;;;;2.25;0.80;;;28.60;84.00;;;;;;5091248;28;20020;-71
2021/08/09 11:02:22;;;;;;;1.83;0.88;;;28.50;80.80;;;;;;5091605;28;20043;-71
2021/08/09 11:05:12;;;;;;;1.63;0.80;;;28.30;81.80;;;;;;5090518;28;20032;-71
2021/08/09 11:07:38;;;;;;;5.35;0.98;;;28.50;81.50;;;;;;5091419;28;20571;-71
2021/08/09 11:10:05;;;;;;;0.88;0.70;;;27.90;83.20;;;;;;5091046;28;20089;-71
2021/08/09 11:12:31;;;;;;;2.22;1.00;;;27.70;81.90;;;;;;5090822;28;20024;-71
2021/08/09 11:15:11;;;;;;;1.13;0.73;;;27.80;80.00;;;;;;5089273;28;20081;-72
2021/08/09 11:17:37;;;;;;;2.17;0.73;;;28.20;81.10;;;;;;5091463;28;20501;-71
2021/08/09 11:20:09;;;;;;;1.20;0.73;;;28.00;81.10;;;;;;5090694;28;20020;-71
2021/08/09 11:22:35;;;;;;;0.77;0.70;;;28.80;80.40;;;;;;5090986;28;20028;-71
2021/08/09 11:25:01;;;;;;;0.80;0.60;;;27.80;79.70;;;;;;5090136;28;20031;-71
2021/08/09 11:27:26;;;;;;;3.33;0.70;;;28.30;80.30;;;;;;5091317;28;20035;-72
2021/08/09 11:29:57;;;;;;;1.30;0.70;;;29.20;81.10;;;;;;5089297;28;20020;-72
2021/08/09 11:32:40;;;;;;;4.97;1.17;;;29.10;77.60;;;;;;5091238;28;20031;-71
2021/08/09 11:35:06;;;;;;;0.98;0.90;;;28.00;81.70;;;;;;5090587;28;20028;-71
2021/08/09 11:37:32;;;;;;;2.35;0.70;;;27.40;79.90;;;;;;5090569;28;20073;-71
2021/08/09 11:39:57;;;;;;;2.10;0.80;;;27.50;83.20;;;;;;5093735;28;20024;-71
2021/08/09 11:42:23;;;;;;;1.25;0.95;;;27.90;83.70;;;;;;5094936;28;20024;-70
2021/08/09 11:44:51;;;;;;;1.42;0.90;;;27.50;81.10;;;;;;5093261;28;20465;-71
2021/08/09 11:47:20;;;;;;;1.77;0.73;;;27.90;81.40;;;;;;5095072;28;20016;-72
2021/08/09 11:49:46;;;;;;;1.95;0.85;;;27.90;82.30;;;;;;5094995;28;20115;-72
2021/08/09 11:52:21;;;;;;;2.65;1.20;;;28.40;79.70;;;;;;5094974;28;20049;-72
2021/08/09 11:54:47;;;;;;;1.42;0.73;;;28.50;81.50;;;;;;5094609;28;20032;-72
2021/08/09 11:57:13;;;;;;;1.77;0.80;;;27.80;79.10;;;;;;5094467;28;20020;-71
2021/08/09 11:59:40;;;;;;;2.38;1.15;;;27.50;83.10;;;;;;5094591;28;20069;-71
2021/08/09 12:02:08;;;;;;;1.95;0.90;;;27.00;80.70;;;;;;5083083;28;20541;-71
2021/08/09 12:04:44;;;;;;;3.97;1.20;;;27.40;79.80;;;;;;5072572;28;20041;-72
2021/08/09 12:07:20;;;;;;;2.60;0.80;;;28.20;79.70;;;;;;5074515;28;20496;-71
2021/08/09 12:09:46;;;;;;;2.20;1.20;;;27.40;79.80;;;;;;5078115;28;20473;-71
2021/08/09 12:12:15;;;;;;;1.40;0.70;;;27.20;82.50;;;;;;5094558;28;20127;-71
2021/08/09 12:14:42;;;;;;;1.77;0.85;;;27.70;84.50;;;;;;5093961;28;20603;-72
2021/08/09 12:17:17;;;;;;;1.13;1.00;;;28.20;82.70;;;;;;5092849;28;20113;-70
2021/08/09 12:19:46;;;;;;;2.58;0.90;;;26.00;80.60;;;;;;5094274;28;20026;-72
2021/08/09 12:22:12;;;;;;;1.80;1.00;;;25.90;86.20;;;;;;5094424;28;20085;-72
2021/08/09 12:24:40;;;;;;;2.88;0.93;;;26.80;85.00;;;;;;5093925;28;20024;-73
2021/08/09 12:27:18;;;;;;;3.47;1.00;;;27.30;84.00;;;;;;5094350;28;20024;-72
2021/08/09 12:30:01;;;;;;;1.35;1.00;;;27.80;79.60;;;;;;5094280;28;20095;-72
2021/08/09 12:32:28;;;;;;;2.17;1.15;;;28.20;81.30;;;;;;5094313;28;20438;-71
2021/08/09 12:34:55;;;;;;;2.45;0.80;;;28.10;75.80;;;;;;5086960;28;20016;-71
2021/08/09 12:37:20;;;;;;;1.85;1.00;;;27.70;79.40;;;;;;5091465;28;20028;-71
2021/08/09 12:39:46;;;;;;;1.63;0.70;;;27.10;77.90;;;;;;5088955;28;20078;-70
2021/08/09 12:42:22;;;;;;;3.40;1.10;;;27.30;79.70;;;;;;5093881;28;20032;-71
2021/08/09 12:44:51;;;;;;;1.60;0.63;;;27.30;78.20;;;;;;5093376;28;20028;-72
2021/08/09 12:47:17;;;;;;;1.50;0.85;;;28.00;80.10;;;;;;5093017;28;20027;-71
2021/08/09 12:49:43;;;;;;;1.30;1.00;;;28.50;81.50;;;;;;5093899;28;20032;-70
2021/08/09 12:52:10;;;;;;;2.85;0.85;;;29.10;80.70;;;;;;5093301;28;20023;-70
2021/08/09 12:54:36;;;;;;;1.15;0.93;;;29.10;77.40;;;;;;5093203;28;20032;-70